Eldon, IA

2:24 AM CDT on July 13, 2014 (GMT -0500)
Oskaloosa Municipal (KOOA) Elev 840 ft | 41.23 °N, 92.49 °W | Change Station

Current weather conditions updated 9 minutes ago

Clear
Clear
66 °F
Feels Like 66 °F
N
0
Wind Variable Wind from North

Today is forecast to be Cooler than yesterday.

Today
High -- | Low -- °F
--% Chance of Precip.
Yesterday
High -- | Low -- °F
Precip. -- in
5:48 AM 8:40 PM
Full, 99% visible
Pressure 29.99 in
Visibility 4.0 miles
Clouds Clear
Dew Point 66 °F
Humidity 97%
Rainfall 0.01 in
Snow Depth Not available.
UV 0 out of 12
Pollen .60 out of 12
Air Quality Not available.
Flu Activity Sporadic
METAR KOOA 130715Z AUTO 00000KT 4SM BR CLR 19/19 A2999 RMK AO2 T01910186

More Conditions Fewer Conditions

Pressure 29.99 in
Visibility 4.0 miles
Clouds Clear
Dew Point 66 °F
Humidity 97%
Rainfall 0.01 in
Snow Depth Not available.
UV 0 out of 12
Pollen .60 out of 12
Air Quality Not available.
Flu Activity Sporadic
METAR KOOA 130715Z AUTO 00000KT 4SM BR CLR 19/19 A2999 RMK AO2 T01910186

More Conditions Fewer Conditions

10-Day Weather Forecast

Almanac

Astronomy

Jul. 13, 2014 Rise Set
Actual Time 5:48 AM CDT 8:40 PM CDT
Civil Twilight 5:15 AM CDT 9:13 PM CDT
Nautical Twilight 4:34 AM CDT 9:54 PM CDT
Astronomical Twilight 3:46 AM CDT 10:41 PM CDT
Moon 9:27 PM CDT 7:20 AM CDT
Length of Visible Light 15h 57m
Length of Day
14h 52m
Tomorrow will be 1m 20s shorter.
Full, 99% of the Moon is Illuminated
Today
Full
Jul 18
Last Quarter
Jul 26
New
Aug 3
First Quarter
Aug 10
Full

Today's Extremes

State Highs State Lows

Community

WunderPhotos

Upload Photos

1,733,123 photos uploaded!

Nearby

Snow Depth

Station Depth Elevation
No new snow has been reported.

Earthquake Activity

City Distance Mag. Time & Date
No recent earthquake activity has been reported nearby.
Minimum magnitude displayed is 2.5.

Coastal Water Temperatures

Place Temperature
No Stations Reporting

Nearby Weather Stations

Station Location Temp. Dew Point Humidity Wind Precip. Elev Updated Type
South, Ottumwa, IA 68.2 °F 68 °F 99% NNW  at  1.9 mph 0.00 in / hr 640 ft 2:23 AM CDT Rapid Fire
East, Ottumwa, IA 67.2 °F 65 °F 93% NNE  at  3.3 mph 0.00 in / hr 833 ft 2:23 AM CDT Rapid Fire
Ottumwa, Ottumwa, IA 67.8 °F 63 °F 85% ENE  at  0.0 mph 0.00 in / hr 669 ft 2:23 AM CDT Normal
Wyacondah TWP, Bloomfield, IA 73.2 °F 72 °F 97% NW  at  6.9 mph 0.32 in / hr 886 ft 11:54 PM CDT Rapid Fire

Show More Stations Show Fewer Stations